createdAt,value
2019-03-26T00:01:11.009Z,3.52
2019-03-26T00:04:05.764Z,3.47
2019-03-26T00:06:44.993Z,3.60
2019-03-26T00:09:30.803Z,2.95
2019-03-26T00:12:16.900Z,3.37
2019-03-26T00:15:03.019Z,3.50
2019-03-26T00:17:49.136Z,2.95
2019-03-26T00:20:35.078Z,3.05
2019-03-26T00:23:21.005Z,3.50
2019-03-26T00:26:06.946Z,3.45
2019-03-26T00:28:52.882Z,3.05
2019-03-26T00:31:38.726Z,3.25
2019-03-26T00:34:24.888Z,3.10
2019-03-26T00:37:10.738Z,3.20
2019-03-26T00:39:56.512Z,2.77
2019-03-26T00:42:42.305Z,3.17
2019-03-26T00:45:28.631Z,3.00
2019-03-26T00:48:14.588Z,3.37
2019-03-26T00:51:00.329Z,3.25
2019-03-26T00:53:48.093Z,3.58
2019-03-26T00:56:34.206Z,2.55
2019-03-26T00:59:25.120Z,2.95
2019-03-26T01:02:10.957Z,3.12
2019-03-26T01:04:57.002Z,2.95
2019-03-26T01:07:42.793Z,2.95
2019-03-26T01:10:28.689Z,3.00
2019-03-26T01:16:00.085Z,3.35
2019-03-26T01:18:45.925Z,2.87
2019-03-26T01:24:17.477Z,2.90
2019-03-26T01:27:03.268Z,3.08
2019-03-26T01:29:48.967Z,3.40
2019-03-26T01:32:34.772Z,3.00
2019-03-26T01:35:20.740Z,2.87
2019-03-26T01:38:06.601Z,3.20
2019-03-26T01:40:52.684Z,2.87
2019-03-26T01:46:23.897Z,2.67
2019-03-26T01:51:55.202Z,2.62
2019-03-26T01:54:41.058Z,3.05
2019-03-26T02:00:13.058Z,3.37
2019-03-26T02:03:03.990Z,2.90
2019-03-26T02:05:50.128Z,2.90
2019-03-26T02:08:39.120Z,3.12
2019-03-26T02:11:24.908Z,2.75
2019-03-26T02:14:10.861Z,2.85
2019-03-26T02:16:56.833Z,2.40
2019-03-26T02:19:42.869Z,2.72
2019-03-26T02:25:33.372Z,2.55
2019-03-26T02:28:19.333Z,2.85
2019-03-26T02:33:51.031Z,2.85
2019-03-26T02:36:37.041Z,2.50
2019-03-26T02:39:23.045Z,2.58
2019-03-26T02:42:08.911Z,2.40
2019-03-26T02:44:54.709Z,2.50
2019-03-26T02:47:40.589Z,2.45
2019-03-26T02:53:12.231Z,2.37
2019-03-26T02:55:58.087Z,3.10
2019-03-26T02:58:44.426Z,1.98
2019-03-26T03:01:30.720Z,2.30
2019-03-26T03:04:18.745Z,2.55
2019-03-26T03:07:04.919Z,2.60
2019-03-26T03:09:51.005Z,2.35
2019-03-26T03:12:36.851Z,2.15
2019-03-26T03:18:08.211Z,2.02
2019-03-26T03:20:54.117Z,2.12
2019-03-26T03:26:26.155Z,2.12
2019-03-26T03:29:11.907Z,2.87
2019-03-26T03:31:57.697Z,3.02
2019-03-26T03:34:43.657Z,2.47
2019-03-26T03:37:29.869Z,2.62
2019-03-26T03:40:15.704Z,2.70
2019-03-26T03:43:03.475Z,2.58
2019-03-26T03:45:49.806Z,2.40
2019-03-26T03:48:35.867Z,2.05
2019-03-26T03:51:21.782Z,2.45
2019-03-26T03:57:12.729Z,2.05
2019-03-26T03:59:58.757Z,2.10
2019-03-26T04:02:45.139Z,2.20
2019-03-26T04:05:31.297Z,2.02
2019-03-26T04:08:17.291Z,2.17
2019-03-26T04:13:48.540Z,2.17
2019-03-26T04:16:34.540Z,2.00
2019-03-26T04:19:20.398Z,2.50
2019-03-26T04:22:06.338Z,2.20
2019-03-26T04:24:52.589Z,2.10
2019-03-26T04:27:38.481Z,2.30
2019-03-26T04:30:28.568Z,1.98
2019-03-26T04:33:14.469Z,2.02
2019-03-26T04:36:00.425Z,2.20
2019-03-26T04:38:46.399Z,2.25
2019-03-26T04:44:17.808Z,1.60
2019-03-26T04:47:03.653Z,2.15
2019-03-26T04:49:49.462Z,2.20
2019-03-26T04:52:35.335Z,2.08
2019-03-26T04:55:21.265Z,2.35
2019-03-26T04:58:07.152Z,2.33
2019-03-26T05:00:53.416Z,2.75
2019-03-26T05:03:39.601Z,1.92
2019-03-26T05:06:37.501Z,2.52
2019-03-26T05:09:13.269Z,2.52
2019-03-26T05:11:59.225Z,2.70
2019-03-26T05:14:45.205Z,2.50
2019-03-26T05:17:31.006Z,2.37
2019-03-26T05:20:16.913Z,2.20
2019-03-26T05:25:48.424Z,2.17
2019-03-26T05:28:34.437Z,1.90
2019-03-26T05:31:20.315Z,2.15
2019-03-26T05:36:51.963Z,2.15
2019-03-26T05:39:38.353Z,2.27
2019-03-26T05:42:24.005Z,2.50
2019-03-26T05:45:09.901Z,2.22
2019-03-26T05:47:55.928Z,2.25
2019-03-26T05:50:42.001Z,2.22
2019-03-26T05:53:27.749Z,2.22
2019-03-26T05:56:13.582Z,2.35
2019-03-26T05:59:01.434Z,2.20
2019-03-26T06:01:47.582Z,2.40
2019-03-26T06:04:33.516Z,2.70
2019-03-26T06:07:19.389Z,2.27
2019-03-26T06:12:51.806Z,2.70
2019-03-26T06:18:23.047Z,2.30
2019-03-26T06:21:08.916Z,2.20
2019-03-26T06:23:54.741Z,2.58
2019-03-26T06:26:41.780Z,2.40
2019-03-26T06:29:46.856Z,2.30
2019-03-26T06:32:32.801Z,2.55
2019-03-26T06:38:04.457Z,2.50
2019-03-26T06:40:50.338Z,2.30
2019-03-26T06:43:36.552Z,2.67
2019-03-26T06:46:23.774Z,2.40
2019-03-26T06:49:10.138Z,2.37
2019-03-26T06:52:17.631Z,2.80
2019-03-26T06:55:04.287Z,2.50
2019-03-26T06:57:51.396Z,2.80
2019-03-26T07:00:37.150Z,3.20
2019-03-26T07:03:23.346Z,3.00
2019-03-26T07:06:09.561Z,2.95
2019-03-26T07:11:40.927Z,3.37
2019-03-26T07:14:27.002Z,3.20
2019-03-26T07:19:58.314Z,3.10
2019-03-26T07:25:29.966Z,3.47
2019-03-26T07:28:15.694Z,3.42
2019-03-26T07:33:47.293Z,3.30
2019-03-26T07:36:33.140Z,3.40
2019-03-26T07:39:18.917Z,3.40
2019-03-26T07:42:04.798Z,2.67
2019-03-26T07:44:52.574Z,3.40
2019-03-26T07:47:38.401Z,2.90
2019-03-26T07:50:24.212Z,3.30
2019-03-26T07:53:10.222Z,2.85
2019-03-26T07:55:56.096Z,3.02
2019-03-26T07:58:42.027Z,3.12
2019-03-26T08:01:27.922Z,3.30
2019-03-26T08:04:13.723Z,2.72
2019-03-26T08:09:47.038Z,2.98
2019-03-26T08:12:33.030Z,2.90
2019-03-26T08:15:20.797Z,3.65
2019-03-26T08:18:06.826Z,3.35
2019-03-26T08:20:52.658Z,3.15
2019-03-26T08:23:38.642Z,4.12
2019-03-26T08:26:24.700Z,3.02
2019-03-26T08:29:11.021Z,2.80
2019-03-26T08:31:56.883Z,3.05
2019-03-26T08:34:42.795Z,3.02
2019-03-26T08:37:29.137Z,3.30
2019-03-26T08:40:15.048Z,3.25
2019-03-26T08:43:00.854Z,3.33
2019-03-26T08:48:33.828Z,2.70
2019-03-26T08:51:22.656Z,3.75
2019-03-26T08:54:08.636Z,3.72
2019-03-26T08:56:54.497Z,3.08
2019-03-26T08:59:40.341Z,3.47
2019-03-26T09:02:26.302Z,3.22
2019-03-26T09:05:31.709Z,3.77
2019-03-26T09:08:25.410Z,3.00
2019-03-26T09:11:07.021Z,3.17
2019-03-26T09:13:53.305Z,3.12
2019-03-26T09:19:24.575Z,3.00
2019-03-26T09:22:10.654Z,2.80
2019-03-26T09:24:56.929Z,3.72
2019-03-26T09:27:43.028Z,3.02
2019-03-26T09:30:28.760Z,3.33
2019-03-26T09:33:14.612Z,3.40
2019-03-26T09:38:46.601Z,3.60
2019-03-26T09:41:32.630Z,3.00
2019-03-26T09:44:18.395Z,3.10
2019-03-26T09:47:15.620Z,3.08
2019-03-26T09:49:52.460Z,3.30
2019-03-26T09:52:40.369Z,3.72
2019-03-26T09:55:26.330Z,3.12
2019-03-26T10:00:57.583Z,3.08
2019-03-26T10:03:43.439Z,3.37
2019-03-26T10:09:15.006Z,3.00
2019-03-26T10:12:00.862Z,4.37
2019-03-26T10:14:46.726Z,2.85
2019-03-26T10:17:32.898Z,3.17
2019-03-26T10:20:19.588Z,3.17
2019-03-26T10:23:05.772Z,3.10
2019-03-26T10:25:52.362Z,3.10
2019-03-26T10:28:41.366Z,3.17
2019-03-26T10:31:27.980Z,3.40
2019-03-26T10:34:15.505Z,3.20
2019-03-26T10:37:01.477Z,3.25
2019-03-26T10:39:50.385Z,3.10
2019-03-26T10:42:36.849Z,3.27
2019-03-26T10:45:25.634Z,3.58
2019-03-26T10:48:11.752Z,3.87
2019-03-26T10:50:57.517Z,3.00
2019-03-26T10:53:43.496Z,3.70
2019-03-26T10:56:32.533Z,3.72
2019-03-26T10:59:17.678Z,3.87
2019-03-26T11:02:03.536Z,3.58
2019-03-26T11:04:49.365Z,4.08
2019-03-26T11:07:35.237Z,3.42
2019-03-26T11:10:21.206Z,3.80
2019-03-26T11:13:06.950Z,4.03
2019-03-26T11:15:52.842Z,3.70
2019-03-26T11:21:24.224Z,3.55
2019-03-26T11:24:10.172Z,4.22
2019-03-26T11:29:41.540Z,3.65
2019-03-26T11:35:13.179Z,3.72
2019-03-26T11:37:59.706Z,3.72
2019-03-26T11:40:47.092Z,4.12
2019-03-26T11:43:43.245Z,3.72
2019-03-26T11:46:30.493Z,3.70
2019-03-26T11:49:21.188Z,3.12
2019-03-26T11:52:08.306Z,3.65
2019-03-26T11:54:54.381Z,3.98
2019-03-26T12:00:34.483Z,4.20
2019-03-26T12:03:25.887Z,3.33
2019-03-26T12:06:18.469Z,3.62
2019-03-26T12:09:10.257Z,3.98
2019-03-26T12:11:57.826Z,4.75
2019-03-26T12:14:45.072Z,3.95
2019-03-26T12:17:35.160Z,3.72
2019-03-26T12:20:21.189Z,4.10
2019-03-26T12:25:52.477Z,3.83
2019-03-26T12:28:38.317Z,3.45
2019-03-26T12:31:24.149Z,3.67
2019-03-26T12:36:55.657Z,3.80
2019-03-26T12:39:44.132Z,3.77
2019-03-26T12:42:29.450Z,3.55
2019-03-26T12:45:15.372Z,4.22
2019-03-26T12:48:02.688Z,3.55
2019-03-26T12:50:48.812Z,3.33
2019-03-26T12:53:34.738Z,3.10
2019-03-26T12:56:20.646Z,3.67
2019-03-26T12:59:06.482Z,3.47
2019-03-26T13:01:52.233Z,3.42
2019-03-26T13:07:24.461Z,3.87
2019-03-26T13:10:14.182Z,4.17
2019-03-26T13:12:58.468Z,3.50
2019-03-26T13:15:45.499Z,3.85
2019-03-26T13:18:31.239Z,3.50
2019-03-26T13:24:02.654Z,3.40
2019-03-26T13:26:49.141Z,3.25
2019-03-26T13:29:35.523Z,3.45
2019-03-26T13:32:21.333Z,4.65
2019-03-26T13:35:07.468Z,3.37
2019-03-26T13:37:53.894Z,4.42
2019-03-26T13:40:40.098Z,3.92
2019-03-26T13:46:11.249Z,4.17
2019-03-26T13:48:57.204Z,4.05
2019-03-26T13:51:43.033Z,4.28
2019-03-26T13:54:31.741Z,4.45
2019-03-26T13:57:17.538Z,3.90
2019-03-26T14:00:03.732Z,4.20
2019-03-26T14:02:49.872Z,4.33
2019-03-26T14:05:35.837Z,3.65
2019-03-26T14:08:21.667Z,4.85
2019-03-26T14:11:07.641Z,4.72
2019-03-26T14:16:39.063Z,3.95
2019-03-26T14:19:24.995Z,4.25
2019-03-26T14:22:10.786Z,4.03
2019-03-26T14:24:56.590Z,4.60
2019-03-26T14:30:47.112Z,4.17
2019-03-26T14:33:33.372Z,3.80
2019-03-26T14:39:06.153Z,5.30
2019-03-26T14:41:52.426Z,4.78
2019-03-26T14:47:24.097Z,4.08
2019-03-26T14:50:10.409Z,4.80
2019-03-26T14:55:42.591Z,5.00
2019-03-26T14:58:28.419Z,4.85
2019-03-26T15:01:14.250Z,4.60
2019-03-26T15:04:00.234Z,4.87
2019-03-26T15:09:31.628Z,5.62
2019-03-26T15:12:17.524Z,4.67
2019-03-26T15:15:04.105Z,5.45
2019-03-26T15:17:50.493Z,5.28
2019-03-26T15:20:37.486Z,6.20
2019-03-26T15:23:23.518Z,5.80
2019-03-26T15:26:10.032Z,5.30
2019-03-26T15:31:42.077Z,5.37
2019-03-26T15:34:36.154Z,6.40
2019-03-26T15:37:17.354Z,5.58
2019-03-26T15:40:04.326Z,6.33
2019-03-26T15:42:50.116Z,6.05
2019-03-26T15:45:36.109Z,5.60
2019-03-26T15:48:21.949Z,6.30
2019-03-26T15:51:07.776Z,6.00
2019-03-26T15:56:39.216Z,6.03
2019-03-26T15:59:44.560Z,5.62
2019-03-26T16:02:30.482Z,5.85
2019-03-26T16:05:16.265Z,5.08
2019-03-26T16:10:47.802Z,5.22
2019-03-26T16:13:35.780Z,5.37
2019-03-26T16:16:21.447Z,6.20
2019-03-26T16:19:07.293Z,6.17
2019-03-26T16:21:53.305Z,6.35
2019-03-26T16:24:39.129Z,5.62
2019-03-26T16:27:25.077Z,6.42
2019-03-26T16:32:56.292Z,6.47
2019-03-26T16:35:42.187Z,6.53
2019-03-26T16:38:27.945Z,6.67
2019-03-26T16:41:13.849Z,6.08
2019-03-26T16:43:59.681Z,6.60
2019-03-26T16:46:45.569Z,6.47
2019-03-26T16:49:31.842Z,6.47
2019-03-26T16:52:17.992Z,6.55
2019-03-26T16:58:08.651Z,6.35
2019-03-26T17:00:54.400Z,6.15
2019-03-26T17:06:25.937Z,6.70
2019-03-26T17:09:12.131Z,6.70
2019-03-26T17:12:03.474Z,6.72
2019-03-26T17:14:46.258Z,6.20
2019-03-26T17:17:33.372Z,5.95
2019-03-26T17:20:19.306Z,6.60
2019-03-26T17:23:05.166Z,6.22
2019-03-26T17:25:51.276Z,6.05
2019-03-26T17:28:37.269Z,5.33
2019-03-26T17:31:23.449Z,6.62
2019-03-26T17:34:09.531Z,6.47
2019-03-26T17:36:55.499Z,6.03
2019-03-26T17:39:41.495Z,6.90
2019-03-26T17:42:27.297Z,5.70
2019-03-26T17:45:13.257Z,6.20
2019-03-26T17:50:44.589Z,5.40
2019-03-26T17:53:30.786Z,5.80
2019-03-26T17:56:16.966Z,6.72
2019-03-26T17:59:02.738Z,6.17
2019-03-26T18:01:48.710Z,5.90
2019-03-26T18:07:20.021Z,5.85
2019-03-26T18:10:05.977Z,5.83
2019-03-26T18:12:51.874Z,5.22
2019-03-26T18:15:38.600Z,5.37
2019-03-26T18:18:24.692Z,6.10
2019-03-26T18:21:10.593Z,6.20
2019-03-26T18:23:56.435Z,5.60
2019-03-26T18:26:42.599Z,5.33
2019-03-26T18:29:28.642Z,5.95
2019-03-26T18:32:14.535Z,5.12
2019-03-26T18:35:00.437Z,5.20
2019-03-26T18:37:46.235Z,4.92
2019-03-26T18:43:17.521Z,5.47
2019-03-26T18:48:48.970Z,5.40
2019-03-26T18:51:34.649Z,5.83
2019-03-26T18:54:20.904Z,5.70
2019-03-26T18:59:52.436Z,5.33
2019-03-26T19:02:38.161Z,5.90
2019-03-26T19:05:24.220Z,5.45
2019-03-26T19:08:09.957Z,5.10
2019-03-26T19:10:56.217Z,5.80
2019-03-26T19:13:42.281Z,5.65
2019-03-26T19:19:13.468Z,5.22
2019-03-26T19:21:59.282Z,6.15
2019-03-26T19:24:45.051Z,5.58
2019-03-26T19:27:33.516Z,5.62
2019-03-26T19:30:19.624Z,5.62
2019-03-26T19:33:05.641Z,5.60
2019-03-26T19:35:51.444Z,5.10
2019-03-26T19:41:22.688Z,5.28
2019-03-26T19:44:08.640Z,5.47
2019-03-26T19:46:54.410Z,5.20
2019-03-26T19:49:40.276Z,4.78
2019-03-26T19:55:11.786Z,4.58
2019-03-26T19:57:57.781Z,5.60
2019-03-26T20:00:43.625Z,5.55
2019-03-26T20:03:32.579Z,5.28
2019-03-26T20:06:18.510Z,4.85
2019-03-26T20:09:05.449Z,5.42
2019-03-26T20:11:51.364Z,4.95
2019-03-26T20:14:37.269Z,5.17
2019-03-26T20:20:08.744Z,4.92
2019-03-26T20:25:39.995Z,4.80
2019-03-26T20:28:26.866Z,5.20
2019-03-26T20:31:13.454Z,5.45
2019-03-26T20:33:59.382Z,4.65
2019-03-26T20:36:45.234Z,4.67
2019-03-26T20:39:31.142Z,4.30
2019-03-26T20:42:16.946Z,5.08
2019-03-26T20:45:03.382Z,4.58
2019-03-26T20:47:49.318Z,5.05
2019-03-26T20:50:35.187Z,4.20
2019-03-26T20:56:06.749Z,4.47
2019-03-26T20:58:53.102Z,4.45
2019-03-26T21:04:24.516Z,4.22
2019-03-26T21:09:57.616Z,4.33
2019-03-26T21:12:43.469Z,4.10
2019-03-26T21:18:14.998Z,3.90
2019-03-26T21:21:00.866Z,4.22
2019-03-26T21:23:48.377Z,4.00
2019-03-26T21:26:35.424Z,4.47
2019-03-26T21:29:23.191Z,4.30
2019-03-26T21:32:15.581Z,5.00
2019-03-26T21:35:00.363Z,4.35
2019-03-26T21:37:46.559Z,4.08
2019-03-26T21:40:32.590Z,4.45
2019-03-26T21:43:21.032Z,4.20
2019-03-26T21:46:07.540Z,3.67
2019-03-26T21:48:53.930Z,3.40
2019-03-26T21:51:40.255Z,3.70
2019-03-26T21:54:28.485Z,4.17
2019-03-26T21:57:14.424Z,4.53
2019-03-26T22:02:45.718Z,3.37
2019-03-26T22:08:17.044Z,3.52
2019-03-26T22:11:02.904Z,3.33
2019-03-26T22:16:34.200Z,3.60
2019-03-26T22:19:28.540Z,4.00
2019-03-26T22:22:08.236Z,3.80
2019-03-26T22:24:54.031Z,3.65
2019-03-26T22:27:41.214Z,3.85
2019-03-26T22:30:27.456Z,3.40
2019-03-26T22:33:13.256Z,3.80
2019-03-26T22:35:59.190Z,3.85
2019-03-26T22:38:45.284Z,3.95
2019-03-26T22:41:32.598Z,3.22
2019-03-26T22:44:30.856Z,3.40
2019-03-26T22:47:06.896Z,3.50
2019-03-26T22:49:57.179Z,3.75
2019-03-26T22:52:41.776Z,4.00
2019-03-26T22:55:27.960Z,4.08
2019-03-26T22:58:13.814Z,3.27
2019-03-26T23:00:59.784Z,3.77
2019-03-26T23:03:45.608Z,3.70
2019-03-26T23:06:31.549Z,3.45
2019-03-26T23:12:02.869Z,3.37
2019-03-26T23:14:51.064Z,3.33
2019-03-26T23:17:36.907Z,3.40
2019-03-26T23:20:22.708Z,3.02
2019-03-26T23:23:08.704Z,3.47
2019-03-26T23:28:39.884Z,4.03
2019-03-26T23:31:25.891Z,3.12
2019-03-26T23:34:11.673Z,3.20
2019-03-26T23:36:57.446Z,3.33
2019-03-26T23:42:28.868Z,2.87
2019-03-26T23:48:00.096Z,3.40
2019-03-26T23:50:46.017Z,3.12
2019-03-26T23:53:31.991Z,3.02
2019-03-26T23:56:17.797Z,3.10
2019-03-26T23:59:03.677Z,3.15
